Time;durP1;ratioP1;P1;durP2;ratioP2;P2;SDS_P1;SDS_P2;PMS_P1;PMS_P2;Temp;Humidity;BMP_temperature;BMP_pressure;BME280_temperature;BME280_humidity;BME280_pressure;Samples;Min_cycle;Max_cycle;Signal;HPM_P1;HPM_P2
2023/12/28 00:02:25;;;;;;;2.53;1.80;;;10.80;99.90;;;;;;5035225;28;20108;-41
2023/12/28 00:04:50;;;;;;;3.75;2.10;;;10.80;99.90;;;;;;5035103;28;20030;-39
2023/12/28 00:07:16;;;;;;;4.28;2.05;;;10.80;99.90;;;;;;5035326;28;20488;-42
2023/12/28 00:09:42;;;;;;;1.70;1.45;;;10.90;99.90;;;;;;5034921;28;20028;-41
2023/12/28 00:12:07;;;;;;;4.45;1.95;;;10.90;99.90;;;;;;5035565;28;20033;-40
2023/12/28 00:14:33;;;;;;;5.35;2.35;;;10.90;99.90;;;;;;5034985;28;20425;-41
2023/12/28 00:16:59;;;;;;;4.85;2.00;;;10.90;99.90;;;;;;5034796;28;20044;-43
2023/12/28 00:19:24;;;;;;;5.00;1.92;;;10.90;99.90;;;;;;5035111;28;20029;-44
2023/12/28 00:21:50;;;;;;;7.97;2.00;;;10.90;99.90;;;;;;5035199;28;20228;-42
2023/12/28 00:24:16;;;;;;;3.70;1.70;;;10.90;99.90;;;;;;5035408;28;20370;-42
2023/12/28 00:26:42;;;;;;;3.85;2.22;;;10.90;99.90;;;;;;5016479;28;20115;-44
2023/12/28 00:29:07;;;;;;;2.03;1.65;;;11.00;99.90;;;;;;5015545;28;20490;-40
2023/12/28 00:31:33;;;;;;;3.47;1.73;;;11.00;99.90;;;;;;5027807;28;20049;-48
2023/12/28 00:33:59;;;;;;;7.45;2.42;;;10.90;99.90;;;;;;5034345;28;20025;-43
2023/12/28 00:36:24;;;;;;;6.28;2.30;;;10.90;99.90;;;;;;5034865;28;20021;-47
2023/12/28 00:38:50;;;;;;;3.55;1.55;;;10.90;99.90;;;;;;5034289;28;20119;-43
2023/12/28 00:41:16;;;;;;;5.57;2.35;;;10.80;99.90;;;;;;5031797;28;20115;-45
2023/12/28 00:43:41;;;;;;;2.97;1.90;;;10.80;99.90;;;;;;5035127;28;20030;-45
2023/12/28 00:46:07;;;;;;;3.47;2.30;;;10.80;99.90;;;;;;5034506;28;20466;-43
2023/12/28 00:48:32;;;;;;;2.33;1.27;;;10.70;99.90;;;;;;5034771;28;20080;-43
2023/12/28 00:51:01;;;;;;;4.10;2.00;;;10.70;99.90;;;;;;5035277;28;20030;-43
2023/12/28 00:53:27;;;;;;;5.57;1.42;;;10.60;99.90;;;;;;5034957;28;20490;-44
2023/12/28 00:55:52;;;;;;;1.88;1.67;;;10.60;99.90;;;;;;5033759;28;20022;-46
2023/12/28 00:58:18;;;;;;;4.07;2.13;;;10.60;99.90;;;;;;5034670;28;20037;-43
2023/12/28 01:00:44;;;;;;;2.03;1.42;;;10.60;99.90;;;;;;5033982;28;20200;-42
2023/12/28 01:03:09;;;;;;;7.82;1.80;;;10.50;99.90;;;;;;5015046;28;20034;-45
2023/12/28 01:05:35;;;;;;;7.28;2.50;;;10.50;99.90;;;;;;5031883;28;20056;-44
2023/12/28 01:08:01;;;;;;;3.53;1.80;;;10.50;99.90;;;;;;5034049;28;20431;-41
2023/12/28 01:10:26;;;;;;;4.07;1.83;;;10.50;99.90;;;;;;5034048;28;20033;-45
2023/12/28 01:12:52;;;;;;;5.45;1.85;;;10.50;99.90;;;;;;5034516;28;20037;-43
2023/12/28 01:15:20;;;;;;;6.78;1.70;;;10.50;99.90;;;;;;5029575;28;20041;-42
2023/12/28 01:17:46;;;;;;;3.13;1.98;;;10.50;99.90;;;;;;5034117;28;20029;-40
2023/12/28 01:20:11;;;;;;;5.00;1.75;;;10.50;99.90;;;;;;5032527;28;20091;-38
2023/12/28 01:22:37;;;;;;;2.88;1.40;;;10.50;99.90;;;;;;5033626;28;20057;-41
2023/12/28 01:25:03;;;;;;;7.55;1.90;;;10.50;99.90;;;;;;5034995;28;20371;-43
2023/12/28 01:27:29;;;;;;;6.38;1.70;;;10.50;99.90;;;;;;5034557;28;20494;-43
2023/12/28 01:29:55;;;;;;;12.02;2.65;;;10.50;99.90;;;;;;5033260;28;20034;-42
2023/12/28 01:32:20;;;;;;;7.93;2.15;;;10.40;99.90;;;;;;5033306;28;20033;-43
2023/12/28 01:34:46;;;;;;;4.10;1.92;;;10.50;99.90;;;;;;5032370;28;20490;-42
2023/12/28 01:37:11;;;;;;;4.85;1.83;;;10.50;99.90;;;;;;5014391;28;20502;-42
2023/12/28 01:39:37;;;;;;;2.78;1.50;;;10.50;99.90;;;;;;5029605;28;20040;-43
2023/12/28 01:42:04;;;;;;;3.08;1.77;;;10.50;99.90;;;;;;5032773;28;20025;-47
2023/12/28 01:44:30;;;;;;;1.75;1.63;;;10.60;99.90;;;;;;5033952;28;20482;-43
2023/12/28 01:46:55;;;;;;;4.25;1.23;;;10.50;99.90;;;;;;5034254;28;20036;-44
2023/12/28 01:49:22;;;;;;;3.30;1.95;;;10.50;99.90;;;;;;5032798;28;20029;-43
2023/12/28 01:51:49;;;;;;;3.33;1.63;;;10.50;99.90;;;;;;5034174;28;20501;-43
2023/12/28 01:54:15;;;;;;;7.60;2.10;;;10.50;99.90;;;;;;5033607;28;20508;-44
2023/12/28 01:56:42;;;;;;;10.43;2.15;;;10.50;99.90;;;;;;5040578;28;20037;-40
2023/12/28 01:59:07;;;;;;;5.35;1.45;;;10.50;99.90;;;;;;5053659;28;20562;-44
2023/12/28 02:01:33;;;;;;;2.72;1.65;;;10.40;99.90;;;;;;5048215;28;20151;-45
2023/12/28 02:03:59;;;;;;;3.97;2.03;;;10.40;99.90;;;;;;5033086;28;20025;-46
2023/12/28 02:06:25;;;;;;;3.65;1.45;;;10.30;99.90;;;;;;5030933;28;20046;-39
2023/12/28 02:08:50;;;;;;;7.95;1.50;;;10.40;99.90;;;;;;5033498;28;20499;-49
2023/12/28 02:11:16;;;;;;;4.40;1.60;;;10.30;99.90;;;;;;5033160;28;20029;-43
2023/12/28 02:13:43;;;;;;;4.07;1.38;;;10.30;99.90;;;;;;5033003;28;20025;-42
2023/12/28 02:16:30;;;;;;;6.25;1.52;;;10.40;99.90;;;;;;5033254;28;20077;-42
2023/12/28 02:18:59;;;;;;;3.13;1.40;;;10.40;99.90;;;;;;5032346;28;20537;-43
2023/12/28 02:21:26;;;;;;;9.20;1.27;;;10.50;99.90;;;;;;5031641;28;20470;-45
2023/12/28 02:23:51;;;;;;;7.95;1.63;;;10.50;99.90;;;;;;5031317;28;20433;-43
2023/12/28 02:26:17;;;;;;;4.18;1.38;;;10.50;99.90;;;;;;5032439;28;20021;-42
2023/12/28 02:28:44;;;;;;;4.03;1.50;;;10.60;99.90;;;;;;5013391;28;20508;-46
2023/12/28 02:31:27;;;;;;;4.47;1.77;;;10.60;99.90;;;;;;5016000;28;20277;-44
2023/12/28 02:34:04;;;;;;;2.95;1.60;;;10.60;99.90;;;;;;5032444;28;20037;-43
2023/12/28 02:36:29;;;;;;;5.67;1.77;;;10.60;99.90;;;;;;5033452;28;20548;-45
2023/12/28 02:38:57;;;;;;;5.43;1.38;;;10.70;99.90;;;;;;5032520;28;20025;-43
2023/12/28 02:41:25;;;;;;;5.90;2.13;;;10.60;99.90;;;;;;5032225;28;20065;-38
2023/12/28 02:43:51;;;;;;;10.63;1.95;;;10.70;99.90;;;;;;5032718;28;20494;-41
2023/12/28 02:46:16;;;;;;;4.43;1.25;;;10.60;99.90;;;;;;5032180;28;20021;-45
2023/12/28 02:48:44;;;;;;;6.95;1.73;;;10.60;99.90;;;;;;5032703;28;20071;-42
2023/12/28 02:51:09;;;;;;;6.53;1.50;;;10.60;99.90;;;;;;5032777;28;20034;-45
2023/12/28 02:53:35;;;;;;;8.85;1.50;;;10.60;99.90;;;;;;5032792;28;20279;-43
2023/12/28 02:56:01;;;;;;;5.60;1.60;;;10.60;99.90;;;;;;5032831;28;20390;-42
2023/12/28 02:58:26;;;;;;;3.35;1.38;;;10.60;99.90;;;;;;5032226;28;20041;-43
2023/12/28 03:00:52;;;;;;;2.65;1.48;;;10.60;99.90;;;;;;5032674;28;20033;-41
2023/12/28 03:03:17;;;;;;;4.65;1.40;;;10.50;99.90;;;;;;5031358;28;20025;-45
2023/12/28 03:05:43;;;;;;;4.65;1.75;;;10.50;99.90;;;;;;5032736;28;20034;-43
2023/12/28 03:08:09;;;;;;;3.30;1.20;;;10.50;99.90;;;;;;5033030;28;20140;-41
2023/12/28 03:10:34;;;;;;;5.13;1.30;;;10.60;99.90;;;;;;5030547;28;20036;-43
2023/12/28 03:13:00;;;;;;;5.00;1.52;;;10.70;99.90;;;;;;5031804;28;20072;-42
2023/12/28 03:15:26;;;;;;;4.63;1.27;;;10.70;99.90;;;;;;5032433;28;20069;-43
2023/12/28 03:17:52;;;;;;;2.10;1.42;;;10.60;99.90;;;;;;5033529;28;20462;-42
2023/12/28 03:20:18;;;;;;;4.03;1.60;;;10.70;99.90;;;;;;5035715;28;20071;-43
2023/12/28 03:22:44;;;;;;;8.68;1.98;;;10.60;99.90;;;;;;5036192;28;20057;-45
2023/12/28 03:25:09;;;;;;;2.90;1.10;;;10.60;99.90;;;;;;5035637;28;20422;-42
2023/12/28 03:27:35;;;;;;;5.32;0.85;;;10.60;99.90;;;;;;5036319;28;20060;-46
2023/12/28 03:30:01;;;;;;;8.75;1.80;;;10.60;99.90;;;;;;5035547;28;20037;-42
2023/12/28 03:32:26;;;;;;;6.07;1.25;;;10.60;99.90;;;;;;5035814;28;20037;-55
2023/12/28 03:34:52;;;;;;;9.43;1.63;;;10.60;99.90;;;;;;5036068;28;20101;-55
2023/12/28 03:37:17;;;;;;;5.10;0.95;;;10.60;99.90;;;;;;5035974;28;20386;-56
2023/12/28 03:39:43;;;;;;;8.73;1.60;;;10.50;99.90;;;;;;5035394;28;20034;-54
2023/12/28 03:42:09;;;;;;;7.93;1.60;;;10.60;99.90;;;;;;5036057;28;20573;-55
2023/12/28 03:44:35;;;;;;;5.38;1.23;;;10.50;99.90;;;;;;5036087;28;20041;-54
2023/12/28 03:47:01;;;;;;;4.07;1.20;;;10.50;99.90;;;;;;5036088;28;20473;-55
2023/12/28 03:49:26;;;;;;;1.70;1.55;;;10.50;99.90;;;;;;5035609;28;20025;-46
2023/12/28 03:51:52;;;;;;;1.65;1.30;;;10.40;99.90;;;;;;5053499;28;20040;-44
2023/12/28 03:54:18;;;;;;;4.72;1.42;;;10.40;99.90;;;;;;5041094;28;20026;-43
2023/12/28 03:56:45;;;;;;;3.50;1.35;;;10.30;99.90;;;;;;5036046;28;20033;-43
2023/12/28 03:59:11;;;;;;;4.88;1.63;;;10.30;99.90;;;;;;5034926;28;20048;-45
2023/12/28 04:01:36;;;;;;;14.25;2.22;;;10.40;99.90;;;;;;5035928;28;20014;-42
2023/12/28 04:04:02;;;;;;;8.55;1.92;;;10.30;99.90;;;;;;5035930;28;20021;-54
2023/12/28 04:06:28;;;;;;;7.10;1.50;;;10.30;99.90;;;;;;5035661;28;20389;-54
2023/12/28 04:08:54;;;;;;;7.43;2.20;;;10.30;99.90;;;;;;5033193;28;20040;-53
2023/12/28 04:11:19;;;;;;;6.10;1.42;;;10.30;99.90;;;;;;5035480;28;20017;-52
2023/12/28 04:13:45;;;;;;;16.65;2.95;;;10.40;99.90;;;;;;5035450;28;20025;-54
2023/12/28 04:16:15;;;;;;;6.15;2.50;;;10.40;99.90;;;;;;5034702;28;20080;-54
2023/12/28 04:18:44;;;;;;;4.22;1.40;;;10.40;99.90;;;;;;5033579;28;20042;-54
2023/12/28 04:21:13;;;;;;;5.88;1.17;;;10.40;99.90;;;;;;5034215;28;20512;-54
2023/12/28 04:23:40;;;;;;;2.42;1.00;;;10.40;99.90;;;;;;5034209;28;20363;-54
2023/12/28 04:26:06;;;;;;;9.18;2.25;;;10.50;99.90;;;;;;5033209;28;20100;-52
2023/12/28 04:28:34;;;;;;;7.05;1.40;;;10.50;99.90;;;;;;5032355;28;20021;-54
2023/12/28 04:31:03;;;;;;;;;;;10.60;99.90;;;;;;5034409;28;20486;-55
2023/12/28 04:33:29;;;;;;;4.53;1.23;;;10.60;99.90;;;;;;5032576;28;19909;-54
2023/12/28 04:35:54;;;;;;;4.47;1.38;;;10.60;99.90;;;;;;5026460;28;20107;-54
2023/12/28 04:38:20;;;;;;;8.18;1.50;;;10.60;99.90;;;;;;5014572;28;20478;-53
2023/12/28 04:40:46;;;;;;;7.88;1.20;;;10.70;99.90;;;;;;5028456;28;20061;-53
2023/12/28 04:43:11;;;;;;;6.22;1.55;;;10.70;99.90;;;;;;5034099;28;20048;-55
2023/12/28 04:45:37;;;;;;;10.43;1.80;;;10.70;99.90;;;;;;5033912;28;20026;-55
2023/12/28 04:48:04;;;;;;;5.53;1.50;;;10.70;99.90;;;;;;5032700;28;20021;-54
2023/12/28 04:50:29;;;;;;;5.25;1.90;;;10.80;99.90;;;;;;5033938;28;20026;-56
2023/12/28 04:52:55;;;;;;;10.23;1.25;;;10.80;99.90;;;;;;5033560;28;20493;-54
2023/12/28 04:55:21;;;;;;;10.02;1.50;;;10.90;99.90;;;;;;5033752;28;20033;-55
2023/12/28 04:57:46;;;;;;;10.55;2.67;;;10.90;99.90;;;;;;5033705;28;20486;-52
2023/12/28 05:00:12;;;;;;;7.97;1.88;;;10.90;99.90;;;;;;5033541;28;20029;-54
2023/12/28 05:02:38;;;;;;;8.02;1.67;;;10.90;99.90;;;;;;5033964;28;20028;-52
2023/12/28 05:05:04;;;;;;;6.88;1.10;;;10.90;99.90;;;;;;5042778;28;20021;-55
2023/12/28 05:07:29;;;;;;;7.65;1.10;;;11.00;99.90;;;;;;5046564;28;20088;-54
2023/12/28 05:09:55;;;;;;;9.48;1.65;;;11.00;99.90;;;;;;5032014;28;20080;-54
2023/12/28 05:12:21;;;;;;;4.43;1.05;;;11.00;99.90;;;;;;5036645;28;20031;-53
2023/12/28 05:14:46;;;;;;;6.93;1.50;;;11.00;99.90;;;;;;4995386;28;1095582;-52
2023/12/28 05:17:12;;;;;;;3.92;1.58;;;11.00;99.90;;;;;;5034794;28;20029;-54
2023/12/28 05:19:38;;;;;;;7.60;1.08;;;11.00;99.90;;;;;;5033512;28;20029;-54
2023/12/28 05:22:06;;;;;;;8.93;1.60;;;11.00;99.90;;;;;;5033773;28;20056;-52
2023/12/28 05:24:32;;;;;;;10.13;1.48;;;10.90;99.90;;;;;;5034015;28;20017;-53
2023/12/28 05:26:58;;;;;;;8.50;1.45;;;10.90;99.90;;;;;;5034243;28;20467;-53
2023/12/28 05:29:23;;;;;;;13.13;1.27;;;11.00;99.90;;;;;;5033854;28;20047;-53
2023/12/28 05:31:49;;;;;;;9.35;1.27;;;11.10;99.90;;;;;;5034087;28;20105;-55
2023/12/28 05:34:15;;;;;;;11.43;2.22;;;11.10;99.90;;;;;;5033358;28;20101;-53
2023/12/28 05:36:41;;;;;;;10.93;1.63;;;11.10;99.90;;;;;;5032855;28;20126;-53
2023/12/28 05:39:09;;;;;;;13.75;2.45;;;11.10;99.90;;;;;;5032288;28;20025;-54
2023/12/28 05:41:35;;;;;;;;;;;11.10;99.90;;;;;;5032403;28;20029;-54
2023/12/28 05:44:00;;;;;;;7.88;1.60;;;11.00;99.90;;;;;;5033506;28;20380;-54
2023/12/28 05:46:26;;;;;;;15.93;2.72;;;11.00;99.90;;;;;;5034195;28;20473;-42
2023/12/28 05:48:51;;;;;;;9.60;1.60;;;11.10;99.90;;;;;;5032811;28;20076;-41
2023/12/28 05:51:18;;;;;;;4.00;1.20;;;11.10;99.90;;;;;;5033861;28;20021;-41
2023/12/28 05:53:44;;;;;;;5.05;1.55;;;11.10;99.90;;;;;;5033832;28;20064;-42
2023/12/28 05:56:09;;;;;;;19.02;2.10;;;11.20;99.90;;;;;;5033800;28;20052;-42
2023/12/28 05:58:36;;;;;;;2.70;0.98;;;11.10;99.90;;;;;;5033232;28;20478;-43
2023/12/28 06:01:04;;;;;;;5.97;1.20;;;11.10;99.90;;;;;;5039275;28;20032;-42
2023/12/28 06:03:33;;;;;;;13.18;1.70;;;11.10;99.90;;;;;;5049353;28;20539;-45
2023/12/28 06:05:59;;;;;;;13.93;1.90;;;11.20;99.90;;;;;;5032687;28;20539;-41
2023/12/28 06:08:25;;;;;;;17.65;1.83;;;11.20;99.90;;;;;;5033615;28;20489;-42
2023/12/28 06:10:51;;;;;;;5.85;1.38;;;11.20;99.90;;;;;;5033684;28;20025;-42
2023/12/28 06:13:16;;;;;;;11.02;1.38;;;11.20;99.90;;;;;;5032883;28;20032;-42
2023/12/28 06:15:43;;;;;;;8.57;2.00;;;11.20;99.90;;;;;;5033225;28;20041;-40
2023/12/28 06:18:09;;;;;;;8.63;1.83;;;11.20;99.90;;;;;;5033644;28;20088;-55
2023/12/28 06:20:36;;;;;;;21.13;1.90;;;11.20;99.90;;;;;;5032160;28;20470;-50
2023/12/28 06:23:01;;;;;;;15.85;1.13;;;11.20;99.90;;;;;;5032875;28;20087;-53
2023/12/28 06:25:27;;;;;;;11.60;1.83;;;11.20;99.90;;;;;;5033270;28;20029;-54
2023/12/28 06:27:53;;;;;;;8.57;1.40;;;11.20;99.90;;;;;;5032857;28;20437;-54
2023/12/28 06:30:18;;;;;;;12.57;1.83;;;11.20;99.90;;;;;;5033126;28;20087;-55
2023/12/28 06:32:44;;;;;;;9.23;2.15;;;11.20;99.90;;;;;;5033367;28;20032;-52
2023/12/28 06:35:10;;;;;;;12.18;1.75;;;11.20;99.90;;;;;;5032362;28;20104;-54
2023/12/28 06:37:36;;;;;;;24.08;2.20;;;11.30;99.90;;;;;;5033082;28;20033;-55
2023/12/28 06:40:01;;;;;;;10.93;1.67;;;11.20;99.90;;;;;;5032820;28;20029;-52
2023/12/28 06:42:27;;;;;;;14.27;2.30;;;11.20;99.90;;;;;;5033222;28;20026;-54
2023/12/28 06:44:53;;;;;;;12.65;2.58;;;11.20;99.90;;;;;;5031461;28;20025;-55
2023/12/28 06:47:18;;;;;;;15.55;1.80;;;11.30;99.90;;;;;;5032408;28;20033;-52
2023/12/28 06:49:44;;;;;;;13.45;1.20;;;11.30;99.90;;;;;;5032178;28;20029;-53
2023/12/28 06:52:10;;;;;;;16.13;2.00;;;11.30;99.90;;;;;;5032336;28;20049;-57
2023/12/28 06:54:35;;;;;;;5.75;1.23;;;11.20;99.90;;;;;;5032108;28;20025;-54
2023/12/28 06:57:01;;;;;;;12.13;2.00;;;11.20;99.90;;;;;;5032230;28;20040;-54
2023/12/28 06:59:26;;;;;;;14.63;1.83;;;11.20;99.90;;;;;;5031975;28;20029;-56
2023/12/28 07:01:52;;;;;;;9.25;1.92;;;11.20;99.90;;;;;;5033213;28;20174;-55
2023/12/28 07:04:18;;;;;;;7.35;1.95;;;11.20;99.90;;;;;;5031662;28;20017;-55
2023/12/28 07:06:43;;;;;;;14.60;1.90;;;11.10;99.90;;;;;;5032724;28;20030;-55
2023/12/28 07:09:09;;;;;;;21.10;2.25;;;11.10;99.90;;;;;;5032420;28;20470;-55
2023/12/28 07:11:35;;;;;;;11.73;1.67;;;11.10;99.90;;;;;;5031667;28;20036;-57
2023/12/28 07:14:00;;;;;;;8.73;1.23;;;11.10;99.90;;;;;;5032526;28;20032;-52
2023/12/28 07:16:26;;;;;;;10.75;1.38;;;11.20;99.90;;;;;;5031702;28;20046;-55
2023/12/28 07:18:52;;;;;;;11.02;1.60;;;11.20;99.90;;;;;;5031120;28;20030;-52
2023/12/28 07:21:18;;;;;;;15.27;1.70;;;11.10;99.90;;;;;;5029783;28;20021;-53
2023/12/28 07:23:48;;;;;;;9.45;1.98;;;11.10;99.90;;;;;;5032119;28;20032;-54
2023/12/28 07:26:14;;;;;;;9.70;3.28;;;11.00;99.90;;;;;;5032677;28;20722;-55
2023/12/28 07:28:43;;;;;;;10.55;2.70;;;10.90;99.90;;;;;;5032521;28;20021;-55
2023/12/28 07:31:09;;;;;;;9.93;1.73;;;10.90;99.90;;;;;;5032350;28;20545;-51
2023/12/28 07:33:34;;;;;;;10.05;1.67;;;11.00;99.90;;;;;;5032637;28;20489;-53
2023/12/28 07:36:02;;;;;;;13.95;1.88;;;11.00;99.90;;;;;;5031491;28;20037;-55
2023/12/28 07:38:28;;;;;;;10.10;1.33;;;11.00;99.90;;;;;;5032489;28;20031;-54
2023/12/28 07:40:53;;;;;;;5.25;1.80;;;10.90;99.90;;;;;;5041129;28;20473;-55
2023/12/28 07:43:19;;;;;;;18.40;3.33;;;10.90;99.90;;;;;;5052537;28;20028;-54
2023/12/28 07:45:45;;;;;;;7.80;1.42;;;11.00;99.90;;;;;;5033025;28;20024;-55
2023/12/28 07:48:11;;;;;;;15.63;3.05;;;11.00;99.90;;;;;;5031896;28;20025;-57
2023/12/28 07:50:36;;;;;;;10.38;1.38;;;11.00;99.90;;;;;;5031683;28;20053;-53
2023/12/28 07:53:02;;;;;;;14.82;2.25;;;11.00;99.90;;;;;;5031813;28;20040;-54
2023/12/28 07:55:28;;;;;;;10.60;1.52;;;11.10;99.90;;;;;;5032198;28;20030;-56
2023/12/28 07:57:54;;;;;;;12.15;3.75;;;11.00;99.90;;;;;;5032204;28;20032;-54
2023/12/28 08:00:19;;;;;;;16.35;2.33;;;11.10;99.90;;;;;;5030143;28;20355;-54
2023/12/28 08:02:45;;;;;;;9.68;2.03;;;11.10;99.90;;;;;;5029580;28;20092;-54
2023/12/28 08:05:11;;;;;;;9.00;1.67;;;11.00;99.90;;;;;;5034067;28;20020;-55
2023/12/28 08:07:37;;;;;;;9.05;2.65;;;11.00;99.90;;;;;;5035550;28;20474;-56
2023/12/28 08:10:03;;;;;;;10.95;1.73;;;11.10;99.90;;;;;;5035396;28;20084;-55
2023/12/28 08:12:29;;;;;;;6.20;2.60;;;11.10;99.90;;;;;;5035033;28;20474;-54
2023/12/28 08:14:55;;;;;;;13.10;1.75;;;11.10;99.90;;;;;;5035368;28;20018;-54
2023/12/28 08:17:21;;;;;;;12.50;1.40;;;11.10;99.90;;;;;;5033706;28;20538;-53
2023/12/28 08:19:46;;;;;;;15.05;1.75;;;11.10;99.90;;;;;;5035177;28;20113;-54
2023/12/28 08:22:12;;;;;;;11.32;1.50;;;11.10;99.90;;;;;;5034795;28;20037;-58
2023/12/28 08:24:38;;;;;;;16.13;2.00;;;11.10;99.90;;;;;;5035453;28;20026;-52
2023/12/28 08:27:04;;;;;;;17.15;4.05;;;11.10;99.90;;;;;;5035137;28;20044;-54
2023/12/28 08:29:29;;;;;;;12.85;1.77;;;11.20;99.90;;;;;;5034236;28;20033;-55
2023/12/28 08:31:55;;;;;;;5.70;1.50;;;11.20;99.90;;;;;;5022619;28;20026;-55
2023/12/28 08:34:21;;;;;;;13.30;1.60;;;11.20;99.90;;;;;;5023681;28;20021;-55
2023/12/28 08:36:46;;;;;;;10.63;1.48;;;11.20;99.90;;;;;;5034962;28;20024;-55
2023/12/28 08:39:12;;;;;;;15.52;2.70;;;11.20;99.90;;;;;;5034617;28;20027;-53
2023/12/28 08:41:38;;;;;;;10.73;1.73;;;11.20;99.90;;;;;;5034874;28;20113;-53
2023/12/28 08:44:04;;;;;;;3.97;1.27;;;11.20;99.90;;;;;;5034581;28;20022;-55
2023/12/28 08:46:29;;;;;;;13.13;1.92;;;11.30;99.90;;;;;;5035073;28;20025;-55
2023/12/28 08:48:55;;;;;;;12.63;1.85;;;11.20;99.90;;;;;;5033077;28;20038;-54
2023/12/28 08:51:22;;;;;;;18.83;2.42;;;11.20;99.90;;;;;;5034507;28;20021;-54
2023/12/28 08:53:47;;;;;;;14.70;1.58;;;11.30;99.90;;;;;;5035230;28;20076;-55
2023/12/28 08:56:17;;;;;;;13.45;1.67;;;11.30;99.90;;;;;;5034192;28;20474;-54
2023/12/28 08:58:44;;;;;;;15.10;1.83;;;11.30;99.90;;;;;;5018322;28;20545;-55
2023/12/28 09:01:21;;;;;;;8.13;1.70;;;11.20;99.90;;;;;;5032620;28;20498;-55
2023/12/28 09:03:49;;;;;;;11.95;1.42;;;11.30;99.90;;;;;;5034486;28;20025;-49
2023/12/28 09:06:15;;;;;;;7.20;1.70;;;11.30;99.90;;;;;;5034216;28;20071;-42
2023/12/28 09:08:46;;;;;;;11.45;1.77;;;11.30;99.90;;;;;;5032874;28;20037;-46
2023/12/28 09:11:12;;;;;;;9.55;2.05;;;11.30;99.90;;;;;;5034029;28;20431;-48
2023/12/28 09:13:38;;;;;;;10.60;1.42;;;11.30;99.90;;;;;;5033931;28;20059;-40
2023/12/28 09:16:09;;;;;;;9.55;1.52;;;11.30;99.90;;;;;;5032184;28;20110;-40
2023/12/28 09:18:37;;;;;;;18.30;2.20;;;11.30;99.90;;;;;;5034269;28;20535;-41
2023/12/28 09:21:03;;;;;;;7.88;1.75;;;11.40;99.90;;;;;;5033339;28;20025;-54
2023/12/28 09:23:29;;;;;;;9.40;2.00;;;11.30;99.90;;;;;;5033087;28;20029;-55
2023/12/28 09:25:54;;;;;;;10.45;1.65;;;11.30;99.90;;;;;;5034049;28;20473;-55
2023/12/28 09:28:20;;;;;;;22.35;2.00;;;11.30;99.90;;;;;;5034115;28;20418;-55
2023/12/28 09:30:46;;;;;;;15.80;3.08;;;11.30;99.90;;;;;;5033016;28;20104;-54
2023/12/28 09:33:11;;;;;;;15.98;2.13;;;11.40;99.90;;;;;;5034498;28;20055;-55
2023/12/28 09:35:37;;;;;;;13.50;1.98;;;11.40;99.90;;;;;;5034172;28;20033;-55
2023/12/28 09:38:03;;;;;;;9.73;1.58;;;11.50;99.90;;;;;;5033806;28;20033;-54
2023/12/28 09:40:29;;;;;;;14.20;2.03;;;11.50;99.90;;;;;;5033904;28;20114;-54
2023/12/28 09:43:36;;;;;;;16.50;3.00;;;11.60;99.90;;;;;;5033975;28;20022;-54
2023/12/28 09:46:07;;;;;;;13.27;2.88;;;11.60;99.90;;;;;;5033156;28;20477;-55
2023/12/28 09:48:33;;;;;;;13.95;1.70;;;11.60;99.90;;;;;;5032402;28;20612;-54
2023/12/28 09:50:59;;;;;;;11.55;2.25;;;11.60;99.90;;;;;;5033431;28;20100;-56
2023/12/28 09:53:25;;;;;;;10.48;2.08;;;11.60;99.90;;;;;;5034047;28;20083;-55
2023/12/28 09:55:52;;;;;;;11.48;1.92;;;11.50;99.90;;;;;;5032867;28;20470;-57
2023/12/28 09:58:19;;;;;;;5.68;1.25;;;11.60;99.90;;;;;;5033303;28;20482;-54
2023/12/28 10:00:45;;;;;;;12.45;1.92;;;11.60;99.90;;;;;;5033391;28;20425;-54
2023/12/28 10:03:15;;;;;;;12.55;1.60;;;11.60;99.90;;;;;;5033506;28;20040;-53
2023/12/28 10:05:42;;;;;;;7.25;1.48;;;11.50;99.90;;;;;;5031616;28;20022;-54
2023/12/28 10:08:08;;;;;;;8.60;1.70;;;11.50;99.90;;;;;;5026952;28;20029;-56
2023/12/28 10:10:34;;;;;;;12.27;2.40;;;11.50;99.90;;;;;;5027280;28;20029;-55
2023/12/28 10:13:00;;;;;;;18.73;1.75;;;11.50;99.90;;;;;;5033673;28;20112;-55
2023/12/28 10:15:26;;;;;;;10.80;1.92;;;11.50;99.90;;;;;;5032913;28;20049;-54
2023/12/28 10:17:52;;;;;;;24.70;2.25;;;11.40;99.90;;;;;;5033243;28;20037;-54
2023/12/28 10:20:18;;;;;;;14.90;2.20;;;11.40;99.90;;;;;;5033451;28;20486;-54
2023/12/28 10:22:44;;;;;;;7.80;1.75;;;11.40;99.90;;;;;;5032753;28;20028;-54
2023/12/28 10:25:10;;;;;;;14.40;1.70;;;11.50;99.90;;;;;;5033400;28;20518;-55
2023/12/28 10:27:42;;;;;;;12.95;2.17;;;11.50;99.90;;;;;;5031063;28;20021;-55
2023/12/28 10:30:09;;;;;;;12.80;2.40;;;11.50;99.90;;;;;;5032688;28;20477;-60
2023/12/28 10:32:34;;;;;;;14.77;1.40;;;11.60;99.90;;;;;;5013759;28;20037;-61
2023/12/28 10:35:00;;;;;;;18.25;2.63;;;11.60;99.90;;;;;;5017038;28;20029;-55
2023/12/28 10:37:27;;;;;;;18.17;1.98;;;11.60;99.90;;;;;;5032187;28;20028;-55
2023/12/28 10:39:55;;;;;;;15.20;2.33;;;11.70;99.90;;;;;;5032293;28;20021;-55
2023/12/28 10:42:30;;;;;;;;;;;11.80;99.90;;;;;;5033263;28;20091;-52
2023/12/28 10:45:03;;;;;;;9.38;1.60;;;11.80;99.90;;;;;;5032924;28;19908;-53
2023/12/28 10:47:31;;;;;;;19.98;2.60;;;11.90;99.90;;;;;;5024625;28;20025;-55
2023/12/28 10:50:00;;;;;;;16.30;1.90;;;11.80;99.90;;;;;;5012934;28;20046;-53
2023/12/28 10:52:28;;;;;;;8.02;1.85;;;11.80;99.90;;;;;;5011985;28;20549;-53
2023/12/28 10:55:00;;;;;;;12.07;1.75;;;11.80;99.90;;;;;;5027935;28;20045;-55
2023/12/28 10:57:33;;;;;;;16.63;2.13;;;11.80;99.90;;;;;;5032254;28;20534;-56
2023/12/28 11:00:13;;;;;;;9.48;1.73;;;11.80;99.90;;;;;;5031981;28;20425;-54
2023/12/28 11:02:45;;;;;;;19.85;2.92;;;11.80;99.90;;;;;;5032594;28;20036;-55
2023/12/28 11:05:12;;;;;;;11.40;1.98;;;11.80;99.90;;;;;;5032444;28;20033;-55
2023/12/28 11:07:39;;;;;;;22.80;2.77;;;11.80;99.90;;;;;;5032754;28;20029;-52
2023/12/28 11:10:06;;;;;;;11.73;1.35;;;11.80;99.90;;;;;;5032114;28;20274;-53
2023/12/28 11:12:32;;;;;;;21.33;3.90;;;11.80;99.90;;;;;;5033052;28;20438;-53
2023/12/28 11:14:59;;;;;;;11.35;1.67;;;11.80;99.90;;;;;;5031838;28;20061;-55
2023/12/28 11:17:25;;;;;;;14.65;2.10;;;11.80;99.90;;;;;;5032549;28;20549;-54
2023/12/28 11:19:53;;;;;;;14.27;2.05;;;11.80;99.90;;;;;;5032297;28;20109;-54
2023/12/28 11:22:20;;;;;;;15.90;2.53;;;11.90;99.90;;;;;;5031328;28;20036;-54
2023/12/28 11:24:46;;;;;;;12.55;1.75;;;11.90;99.90;;;;;;5032558;28;20536;-52
2023/12/28 11:27:12;;;;;;;11.43;1.50;;;11.80;99.90;;;;;;5031976;28;20022;-53
2023/12/28 11:29:38;;;;;;;15.48;1.98;;;11.90;99.90;;;;;;5032758;28;20390;-54
2023/12/28 11:32:04;;;;;;;18.10;3.15;;;11.90;99.90;;;;;;5031704;28;20033;-52
2023/12/28 11:34:33;;;;;;;32.53;3.30;;;12.00;99.90;;;;;;5030022;28;20041;-55
2023/12/28 11:37:03;;;;;;;14.07;1.83;;;11.90;99.90;;;;;;5031616;28;20027;-53
2023/12/28 11:39:33;;;;;;;8.40;2.13;;;12.00;99.90;;;;;;5032796;28;20056;-54
2023/12/28 11:42:09;;;;;;;12.15;1.77;;;11.90;99.90;;;;;;5034056;28;20441;-54
2023/12/28 11:44:39;;;;;;;19.05;2.08;;;11.90;99.90;;;;;;5036100;28;20501;-54
2023/12/28 11:47:12;;;;;;;20.38;3.17;;;11.80;99.90;;;;;;5036154;28;20504;-41
2023/12/28 11:49:40;;;;;;;16.40;2.13;;;11.80;99.90;;;;;;5034055;28;20482;-42
2023/12/28 11:52:06;;;;;;;;;;;11.80;99.90;;;;;;5035486;28;20474;-40
2023/12/28 11:54:32;;;;;;;14.60;2.55;;;11.80;99.90;;;;;;5035331;28;20292;-46
2023/12/28 11:56:58;;;;;;;18.27;2.45;;;11.80;99.90;;;;;;5035661;28;20112;-40
2023/12/28 11:59:23;;;;;;;11.57;1.88;;;11.80;99.90;;;;;;5035852;28;20033;-42
2023/12/28 12:01:53;;;;;;;13.93;1.98;;;11.80;99.90;;;;;;5034895;28;20088;-50
2023/12/28 12:04:20;;;;;;;21.88;2.17;;;11.80;99.90;;;;;;5026770;28;20545;-40
2023/12/28 12:06:47;;;;;;;13.18;2.33;;;11.80;99.90;;;;;;5035377;28;20065;-47
2023/12/28 12:09:13;;;;;;;15.48;2.95;;;11.80;99.90;;;;;;5035666;28;20030;-43
2023/12/28 12:11:39;;;;;;;10.93;2.60;;;11.90;99.90;;;;;;5034944;28;20031;-42
2023/12/28 12:14:09;;;;;;;15.50;1.58;;;12.00;99.90;;;;;;5035874;28;20096;-40
2023/12/28 12:16:37;;;;;;;20.08;2.03;;;12.00;99.90;;;;;;5035392;28;20045;-54
2023/12/28 12:19:03;;;;;;;17.17;1.73;;;12.00;99.90;;;;;;5034351;28;20576;-54
2023/12/28 12:21:29;;;;;;;20.67;2.25;;;12.00;99.90;;;;;;5035218;28;20474;-56
2023/12/28 12:23:55;;;;;;;15.70;1.90;;;12.10;99.90;;;;;;5029033;28;20014;-53
2023/12/28 12:26:21;;;;;;;20.45;1.55;;;12.20;99.90;;;;;;5020253;28;20138;-56
2023/12/28 12:28:48;;;;;;;23.60;2.03;;;12.20;99.90;;;;;;5035636;28;20493;-55
2023/12/28 12:31:14;;;;;;;21.15;2.80;;;12.20;99.90;;;;;;5033651;28;20501;-52
2023/12/28 12:33:41;;;;;;;18.02;2.67;;;12.20;99.90;;;;;;5035188;28;20515;-54
2023/12/28 12:36:08;;;;;;;18.60;2.35;;;12.20;99.90;;;;;;5035116;28;20057;-54
2023/12/28 12:38:34;;;;;;;17.20;2.20;;;12.20;99.90;;;;;;5035775;28;20053;-53
2023/12/28 12:40:59;;;;;;;16.60;2.30;;;12.20;99.90;;;;;;5028843;28;20034;-54